Time;durP1;ratioP1;P1;durP2;ratioP2;P2;SDS_P1;SDS_P2;PMS_P1;PMS_P2;Temp;Humidity;BMP_temperature;BMP_pressure;BME280_temperature;BME280_humidity;BME280_pressure;Samples;Min_cycle;Max_cycle;Signal;HPM_P1;HPM_P2
2021/10/12 00:00:00;;;;;;;5.07;2.60;;;;;;;;;;10259432;29;20273;-96
2021/10/12 00:05:00;;;;;;;3.92;2.50;;;;;;;;;;10251076;28;20062;-95
2021/10/12 00:10:00;;;;;;;3.40;2.17;;;;;;;;;;10258613;28;20039;-94
2021/10/12 00:15:02;;;;;;;4.20;2.58;;;;;;;;;;10257063;28;20034;-95
2021/10/12 00:20:04;;;;;;;6.97;2.67;;;;;;;;;;10258127;28;20034;-94
2021/10/12 00:25:06;;;;;;;4.90;2.75;;;;;;;;;;10258379;28;20374;-94
2021/10/12 00:30:07;;;;;;;4.53;2.47;;;;;;;;;;10257347;28;20422;-94
2021/10/12 00:35:07;;;;;;;5.25;2.10;;;;;;;;;;10257215;29;20039;-93
2021/10/12 00:40:08;;;;;;;6.38;2.28;;;;;;;;;;10255451;29;20043;-96
2021/10/12 00:45:11;;;;;;;3.85;2.25;;;;;;;;;;10273672;28;20079;-91
2021/10/12 00:50:12;;;;;;;4.82;2.35;;;;;;;;;;10272194;28;20049;-91
2021/10/12 00:55:12;;;;;;;6.70;2.80;;;;;;;;;;10256102;29;20495;-95
2021/10/12 01:00:13;;;;;;;5.90;2.70;;;;;;;;;;10240846;29;20296;-95
2021/10/12 01:05:13;;;;;;;6.45;2.17;;;;;;;;;;10255891;28;20118;-93
2021/10/12 01:10:14;;;;;;;2.17;1.95;;;;;;;;;;10256741;28;20473;-94
2021/10/12 01:15:14;;;;;;;5.88;2.33;;;;;;;;;;10256834;28;20042;-95
2021/10/12 01:20:15;;;;;;;5.82;2.25;;;;;;;;;;10239940;28;20058;-93
2021/10/12 01:25:16;;;;;;;5.70;2.28;;;;;;;;;;10257714;28;20038;-94
2021/10/12 01:30:17;;;;;;;4.65;2.50;;;;;;;;;;10255884;28;20042;-93
2021/10/12 01:35:18;;;;;;;2.70;2.00;;;;;;;;;;10272099;28;20047;-93
2021/10/12 01:40:18;;;;;;;5.32;2.20;;;;;;;;;;10271866;28;20031;-92
2021/10/12 01:45:19;;;;;;;6.90;2.73;;;;;;;;;;10261238;28;20386;-96
2021/10/12 01:50:19;;;;;;;4.50;2.30;;;;;;;;;;10273797;28;20301;-96
2021/10/12 01:55:22;;;;;;;12.30;2.10;;;;;;;;;;10279348;29;20047;-96
2021/10/12 02:00:23;;;;;;;11.15;2.40;;;;;;;;;;10270755;29;20031;-96
2021/10/12 02:05:24;;;;;;;4.30;2.10;;;;;;;;;;10268684;28;20039;-96
2021/10/12 02:10:25;;;;;;;6.00;2.22;;;;;;;;;;10319941;23;20137;-87
2021/10/12 02:15:26;;;;;;;6.05;2.17;;;;;;;;;;10313203;28;20037;-87
2021/10/12 02:20:26;;;;;;;8.55;2.28;;;;;;;;;;10279677;28;20109;-87
2021/10/12 02:25:27;;;;;;;4.95;2.92;;;;;;;;;;10334169;28;20061;-87
2021/10/12 02:30:27;;;;;;;5.30;2.00;;;;;;;;;;10302904;28;20029;-86
2021/10/12 02:35:28;;;;;;;6.28;2.10;;;;;;;;;;10320923;28;20486;-86
2021/10/12 02:40:28;;;;;;;3.03;1.95;;;;;;;;;;10332289;28;20018;-86
2021/10/12 02:45:29;;;;;;;2.93;2.00;;;;;;;;;;10313389;28;20030;-86
2021/10/12 02:50:29;;;;;;;5.57;2.17;;;;;;;;;;10302172;28;20629;-87
2021/10/12 02:55:30;;;;;;;2.10;1.47;;;;;;;;;;10316265;28;20263;-87
2021/10/12 03:00:30;;;;;;;4.18;2.03;;;;;;;;;;10286542;28;20428;-85
2021/10/12 03:05:30;;;;;;;4.32;2.63;;;;;;;;;;10315641;28;20105;-86
2021/10/12 03:10:31;;;;;;;3.38;2.03;;;;;;;;;;10305737;28;20038;-86
2021/10/12 03:15:31;;;;;;;3.70;2.10;;;;;;;;;;10333229;28;20061;-86
2021/10/12 03:20:32;;;;;;;4.03;2.58;;;;;;;;;;10288291;28;20322;-87
2021/10/12 03:25:32;;;;;;;3.90;2.28;;;;;;;;;;10333470;28;20022;-87
2021/10/12 03:30:33;;;;;;;3.53;2.07;;;;;;;;;;10285936;28;20061;-87
2021/10/12 03:35:36;;;;;;;3.10;2.00;;;;;;;;;;10290851;28;20296;-87
2021/10/12 03:40:36;;;;;;;7.40;2.55;;;;;;;;;;10315650;28;20022;-86
2021/10/12 03:45:37;;;;;;;2.65;2.08;;;;;;;;;;10328674;28;20164;-86
2021/10/12 03:50:37;;;;;;;5.70;1.97;;;;;;;;;;10290948;28;20027;-86
2021/10/12 03:55:38;;;;;;;3.20;1.65;;;;;;;;;;10325062;28;20065;-86
2021/10/12 04:00:38;;;;;;;2.83;1.90;;;;;;;;;;10338466;28;20027;-87
2021/10/12 04:05:39;;;;;;;7.28;1.77;;;;;;;;;;10278488;28;20527;-86
2021/10/12 04:10:40;;;;;;;2.57;1.93;;;;;;;;;;10339329;28;20249;-86
2021/10/12 04:15:40;;;;;;;3.50;1.90;;;;;;;;;;10324824;28;20029;-86
2021/10/12 04:20:41;;;;;;;5.93;1.90;;;;;;;;;;10338429;28;20113;-87
2021/10/12 04:25:42;;;;;;;5.22;2.35;;;;;;;;;;10303258;28;20050;-87
2021/10/12 04:30:46;;;;;;;3.80;2.20;;;;;;;;;;10315595;28;20105;-87
2021/10/12 04:35:46;;;;;;;4.68;1.83;;;;;;;;;;10307069;28;20023;-86
2021/10/12 04:40:47;;;;;;;2.40;1.70;;;;;;;;;;10338031;28;20452;-86
2021/10/12 04:45:47;;;;;;;4.47;2.03;;;;;;;;;;10290977;28;20121;-87
2021/10/12 04:50:48;;;;;;;3.00;2.80;;;;;;;;;;10293871;28;20353;-87
2021/10/12 04:55:48;;;;;;;3.67;2.83;;;;;;;;;;10334423;28;20031;-86
2021/10/12 05:00:48;;;;;;;13.40;6.53;;;;;;;;;;10318995;28;20311;-87
2021/10/12 05:05:49;;;;;;;6.80;6.30;;;;;;;;;;10319654;28;20037;-87
2021/10/12 05:10:49;;;;;;;6.78;5.93;;;;;;;;;;10336714;28;20097;-87
2021/10/12 05:15:50;;;;;;;3.13;2.72;;;;;;;;;;10319827;28;20042;-87
2021/10/12 05:20:51;;;;;;;6.90;2.97;;;;;;;;;;10302900;28;20123;-87
2021/10/12 05:25:52;;;;;;;4.53;2.55;;;;;;;;;;10321921;28;20113;-86
2021/10/12 05:30:52;;;;;;;3.83;2.70;;;;;;;;;;10300033;28;20388;-86
2021/10/12 05:35:54;;;;;;;2.80;2.30;;;;;;;;;;10313390;28;20101;-86
2021/10/12 05:40:55;;;;;;;4.35;2.80;;;;;;;;;;10335809;28;20105;-86
2021/10/12 05:45:55;;;;;;;17.98;3.20;;;;;;;;;;10335565;28;20100;-86
2021/10/12 05:50:56;;;;;;;3.70;2.92;;;;;;;;;;10310498;28;20050;-86
2021/10/12 05:56:04;;;;;;;5.30;3.63;;;;;;;;;;10287730;28;20042;-88
2021/10/12 06:01:05;;;;;;;;;;;;;;;;;;10293505;28;20035;-87
2021/10/12 06:06:05;;;;;;;15.55;4.03;;;;;;;;;;10294255;28;19925;-87
2021/10/12 06:11:07;;;;;;;14.13;4.00;;;;;;;;;;10293292;28;20106;-87
2021/10/12 06:16:08;;;;;;;14.30;3.95;;;;;;;;;;10296138;28;20476;-87
2021/10/12 06:21:09;;;;;;;17.58;4.18;;;;;;;;;;10300843;28;20427;-87
2021/10/12 06:26:10;;;;;;;14.77;4.22;;;;;;;;;;10271648;28;20033;-87
2021/10/12 06:31:10;;;;;;;6.45;4.10;;;;;;;;;;10296237;28;20026;-86
2021/10/12 06:36:11;;;;;;;17.33;4.13;;;;;;;;;;10293172;28;20022;-87
2021/10/12 06:41:11;;;;;;;12.82;4.43;;;;;;;;;;10296979;28;20023;-87
2021/10/12 06:46:11;;;;;;;16.47;4.00;;;;;;;;;;10306617;28;20037;-87
2021/10/12 06:51:12;;;;;;;19.17;4.93;;;;;;;;;;10321134;28;20084;-87
2021/10/12 06:56:13;;;;;;;11.70;3.90;;;;;;;;;;10333831;28;20023;-87
2021/10/12 07:01:13;;;;;;;7.85;3.97;;;;;;;;;;10320924;28;20276;-87
2021/10/12 07:06:14;;;;;;;9.90;4.40;;;;;;;;;;10320527;28;20031;-87
2021/10/12 07:11:14;;;;;;;13.57;4.70;;;;;;;;;;10319068;28;20375;-87
2021/10/12 07:16:16;;;;;;;8.27;4.40;;;;;;;;;;10317031;28;20607;-87
2021/10/12 07:21:17;;;;;;;7.47;3.88;;;;;;;;;;10278875;28;20272;-87
2021/10/12 07:26:17;;;;;;;9.20;4.13;;;;;;;;;;10312361;28;20476;-87
2021/10/12 07:31:18;;;;;;;7.93;4.32;;;;;;;;;;10292444;28;20025;-87
2021/10/12 07:36:18;;;;;;;5.03;3.70;;;;;;;;;;10319509;28;20152;-87
2021/10/12 07:41:20;;;;;;;6.72;4.25;;;;;;;;;;10297113;28;20038;-87
2021/10/12 07:46:20;;;;;;;6.45;4.22;;;;;;;;;;10458722;23;20049;-87
2021/10/12 07:51:20;;;;;;;10.20;4.33;;;;;;;;;;10421103;28;20037;-86
2021/10/12 07:56:36;;;;;;;6.50;4.10;;;;;;;;;;10421000;28;20040;-87
2021/10/12 08:01:38;;;;;;;6.47;3.92;;;;;;;;;;10421541;28;20529;-87
2021/10/12 08:06:39;;;;;;;7.18;3.60;;;;;;;;;;10421135;28;20464;-86
2021/10/12 08:11:40;;;;;;;7.03;4.00;;;;;;;;;;10429413;28;20072;-86
2021/10/12 08:16:42;;;;;;;6.60;3.70;;;;;;;;;;10403111;28;20056;-87
2021/10/12 08:21:43;;;;;;;6.10;3.63;;;;;;;;;;10420979;28;20033;-87
2021/10/12 08:26:43;;;;;;;6.75;3.58;;;;;;;;;;10420577;28;20051;-87
2021/10/12 08:31:44;;;;;;;9.70;3.97;;;;;;;;;;10420213;28;20037;-86
2021/10/12 08:36:45;;;;;;;4.63;3.47;;;;;;;;;;10418993;28;20451;-86
2021/10/12 08:41:55;;;;;;;5.07;3.83;;;;;;;;;;10418758;28;20030;-87
2021/10/12 08:46:57;;;;;;;4.07;3.67;;;;;;;;;;10401551;28;20178;-87
2021/10/12 08:51:57;;;;;;;4.70;3.50;;;;;;;;;;10419378;28;20451;-88
2021/10/12 08:56:57;;;;;;;4.27;3.77;;;;;;;;;;10432639;28;20128;-87
2021/10/12 09:02:03;;;;;;;5.50;2.88;;;;;;;;;;10418794;28;20029;-87
2021/10/12 09:07:04;;;;;;;3.97;3.05;;;;;;;;;;10419381;28;20034;-88
2021/10/12 09:12:05;;;;;;;8.45;3.30;;;;;;;;;;10403602;28;20041;-88
2021/10/12 09:17:06;;;;;;;9.93;3.42;;;;;;;;;;10419990;28;20087;-88
2021/10/12 09:22:06;;;;;;;5.68;2.70;;;;;;;;;;10418699;28;20037;-88
2021/10/12 09:27:09;;;;;;;5.13;2.90;;;;;;;;;;10418605;28;20399;-88
2021/10/12 09:32:11;;;;;;;6.65;3.15;;;;;;;;;;10417795;28;20087;-88
2021/10/12 09:37:15;;;;;;;5.30;3.08;;;;;;;;;;10416906;28;20029;-88
2021/10/12 09:42:17;;;;;;;3.95;2.85;;;;;;;;;;10417943;28;20375;-88
2021/10/12 09:47:18;;;;;;;5.18;2.90;;;;;;;;;;10416423;28;20081;-88
2021/10/12 09:52:21;;;;;;;4.53;2.95;;;;;;;;;;10416360;28;20123;-87
2021/10/12 09:57:23;;;;;;;5.43;3.25;;;;;;;;;;10415991;28;20105;-87
2021/10/12 10:02:24;;;;;;;3.13;2.50;;;;;;;;;;10416516;28;20452;-88
2021/10/12 10:07:40;;;;;;;6.57;2.80;;;;;;;;;;10416903;28;20435;-89
2021/10/12 10:12:40;;;;;;;5.25;3.05;;;;;;;;;;10399670;28;20427;-87
2021/10/12 10:17:42;;;;;;;4.77;2.50;;;;;;;;;;10422331;28;20036;-87
2021/10/12 10:27:47;;;;;;;5.65;3.13;;;;;;;;;;10416521;28;20468;-88
2021/10/12 10:32:52;;;;;;;3.85;2.53;;;;;;;;;;10415717;28;20056;-88
2021/10/12 10:37:52;;;;;;;4.72;2.72;;;;;;;;;;10414734;28;20045;-88
2021/10/12 10:42:55;;;;;;;4.47;2.60;;;;;;;;;;10415435;28;20041;-88
2021/10/12 10:48:02;;;;;;;4.75;2.88;;;;;;;;;;10415494;28;20040;-88
2021/10/12 10:53:05;;;;;;;4.70;3.20;;;;;;;;;;10415197;28;20033;-88
2021/10/12 10:58:16;;;;;;;4.63;3.10;;;;;;;;;;10417127;28;20456;-87
2021/10/12 11:03:25;;;;;;;4.18;2.65;;;;;;;;;;10423779;28;20032;-87
2021/10/12 11:08:27;;;;;;;5.90;2.50;;;;;;;;;;10422928;28;20467;-88
2021/10/12 11:13:41;;;;;;;3.97;2.58;;;;;;;;;;10423492;28;20033;-87
2021/10/12 11:18:44;;;;;;;4.72;2.95;;;;;;;;;;10423071;28;20033;-87
2021/10/12 11:23:49;;;;;;;3.17;2.47;;;;;;;;;;10422188;28;20424;-88
2021/10/12 11:28:55;;;;;;;5.50;2.90;;;;;;;;;;10422628;28;20116;-88
2021/10/12 11:33:58;;;;;;;3.13;2.33;;;;;;;;;;10422427;28;20029;-85
2021/10/12 11:39:00;;;;;;;5.05;2.72;;;;;;;;;;10421676;28;20036;-85
2021/10/12 11:44:14;;;;;;;4.25;3.00;;;;;;;;;;10421723;28;20053;-85
2021/10/12 11:49:16;;;;;;;3.72;2.72;;;;;;;;;;10425193;28;20037;-84
2021/10/12 11:54:25;;;;;;;4.43;2.75;;;;;;;;;;10419576;28;20053;-85
2021/10/12 11:59:26;;;;;;;5.55;2.88;;;;;;;;;;10422533;28;20460;-85
2021/10/12 12:04:31;;;;;;;6.70;2.97;;;;;;;;;;10420518;28;20029;-85
2021/10/12 12:09:32;;;;;;;3.35;2.70;;;;;;;;;;10420950;28;20036;-84
2021/10/12 12:14:33;;;;;;;8.60;2.70;;;;;;;;;;10420528;28;20029;-84
2021/10/12 12:19:40;;;;;;;4.50;2.80;;;;;;;;;;10402932;28;20029;-85
2021/10/12 12:25:03;;;;;;;3.38;2.40;;;;;;;;;;10419625;28;20044;-85
2021/10/12 12:30:08;;;;;;;3.75;2.88;;;;;;;;;;10419112;28;20040;-84
2021/10/12 12:35:09;;;;;;;4.90;2.70;;;;;;;;;;10414113;28;20029;-85
2021/10/12 12:40:27;;;;;;;5.57;2.77;;;;;;;;;;10414051;28;20037;-86
2021/10/12 12:45:27;;;;;;;3.60;2.60;;;;;;;;;;10412549;28;20056;-87
2021/10/12 12:50:36;;;;;;;3.10;2.53;;;;;;;;;;10408905;28;20067;-85
2021/10/12 12:55:41;;;;;;;;;;;;;;;;;;10416107;28;20021;-88
2021/10/12 13:00:59;;;;;;;4.95;2.92;;;;;;;;;;10399566;28;19919;-86
2021/10/12 13:06:00;;;;;;;5.60;2.70;;;;;;;;;;10416251;28;20079;-85
2021/10/12 13:11:00;;;;;;;7.95;2.90;;;;;;;;;;10416920;28;20034;-88
2021/10/12 13:16:02;;;;;;;8.23;2.78;;;;;;;;;;10413074;28;20038;-87
2021/10/12 13:21:02;;;;;;;5.28;2.67;;;;;;;;;;10404855;28;20057;-88
2021/10/12 13:26:02;;;;;;;8.93;2.83;;;;;;;;;;10398157;28;20061;-88
2021/10/12 13:31:03;;;;;;;3.55;2.35;;;;;;;;;;10412678;28;20263;-85
2021/10/12 13:36:04;;;;;;;5.80;2.75;;;;;;;;;;10414246;28;20483;-87
2021/10/12 13:41:04;;;;;;;6.88;2.42;;;;;;;;;;10415207;28;20115;-85
2021/10/12 13:46:05;;;;;;;6.18;2.67;;;;;;;;;;10386779;28;20038;-85
2021/10/12 13:51:09;;;;;;;6.50;2.90;;;;;;;;;;10365194;28;20041;-85
2021/10/12 13:56:10;;;;;;;6.00;2.83;;;;;;;;;;10371560;28;20080;-87
2021/10/12 14:01:10;;;;;;;5.53;2.80;;;;;;;;;;10363713;28;20061;-86
2021/10/12 14:06:12;;;;;;;6.27;2.60;;;;;;;;;;10369366;28;20693;-86
2021/10/12 14:11:13;;;;;;;6.03;2.72;;;;;;;;;;10377572;28;20588;-87
2021/10/12 14:16:13;;;;;;;5.35;2.80;;;;;;;;;;10378092;28;20028;-88
2021/10/12 14:21:15;;;;;;;6.93;2.73;;;;;;;;;;10369245;28;20037;-87
2021/10/12 14:26:16;;;;;;;6.88;2.90;;;;;;;;;;10376467;28;20451;-87
2021/10/12 14:31:17;;;;;;;3.20;2.33;;;;;;;;;;10372815;28;20022;-86
2021/10/12 14:36:18;;;;;;;6.13;3.22;;;;;;;;;;10371727;28;20109;-86
2021/10/12 14:41:18;;;;;;;4.60;2.73;;;;;;;;;;10352002;28;20105;-85
2021/10/12 14:46:18;;;;;;;4.20;2.60;;;;;;;;;;10371370;28;20294;-85
2021/10/12 14:51:19;;;;;;;4.60;2.50;;;;;;;;;;10371102;28;20259;-86
2021/10/12 14:56:21;;;;;;;4.18;2.70;;;;;;;;;;10372592;28;20030;-86
2021/10/12 15:01:21;;;;;;;6.03;2.50;;;;;;;;;;10371603;28;20428;-86
2021/10/12 15:06:21;;;;;;;4.10;2.87;;;;;;;;;;10368321;28;20026;-85
2021/10/12 15:11:22;;;;;;;3.50;2.57;;;;;;;;;;10371326;28;20076;-84
2021/10/12 15:16:22;;;;;;;4.55;2.65;;;;;;;;;;10371624;28;20034;-85
2021/10/12 15:21:22;;;;;;;4.10;2.33;;;;;;;;;;10363298;28;20046;-85
2021/10/12 15:26:23;;;;;;;7.40;2.33;;;;;;;;;;10356772;28;20374;-84
2021/10/12 15:31:23;;;;;;;3.87;2.37;;;;;;;;;;10360877;28;20270;-85
2021/10/12 15:36:23;;;;;;;5.43;2.80;;;;;;;;;;10368968;28;20368;-85
2021/10/12 15:41:24;;;;;;;7.45;2.60;;;;;;;;;;10370589;28;20057;-86
2021/10/12 15:46:24;;;;;;;6.93;2.70;;;;;;;;;;10398944;28;20042;-86
2021/10/12 15:51:24;;;;;;;4.27;2.73;;;;;;;;;;10419253;28;20037;-88
2021/10/12 15:56:25;;;;;;;4.00;2.37;;;;;;;;;;10409573;28;20323;-88
2021/10/12 16:01:25;;;;;;;3.80;2.33;;;;;;;;;;10418930;28;20065;-87
2021/10/12 16:06:26;;;;;;;3.38;2.40;;;;;;;;;;10384259;28;20346;-88
2021/10/12 16:11:26;;;;;;;4.82;2.70;;;;;;;;;;10418343;28;20065;-89
2021/10/12 16:21:44;;;;;;;5.13;2.78;;;;;;;;;;10414122;28;20291;-88
2021/10/12 16:26:46;;;;;;;3.35;2.10;;;;;;;;;;10415343;28;20034;-87
2021/10/12 16:31:50;;;;;;;5.18;2.25;;;;;;;;;;10411022;28;20064;-88
2021/10/12 16:37:03;;;;;;;4.07;2.65;;;;;;;;;;10415889;28;20083;-87
2021/10/12 16:42:07;;;;;;;6.78;2.88;;;;;;;;;;10416959;28;20042;-87
2021/10/12 16:47:08;;;;;;;9.10;2.60;;;;;;;;;;10416493;28;20387;-87
2021/10/12 16:52:08;;;;;;;4.25;2.65;;;;;;;;;;10415786;28;20045;-88
2021/10/12 16:57:09;;;;;;;5.05;2.83;;;;;;;;;;10409173;28;20033;-85
2021/10/12 17:02:09;;;;;;;8.05;2.85;;;;;;;;;;10403485;28;20041;-87
2021/10/12 17:07:10;;;;;;;4.33;2.77;;;;;;;;;;10415596;28;20029;-89
2021/10/12 17:12:11;;;;;;;5.18;2.92;;;;;;;;;;10406972;28;20428;-89
2021/10/12 17:17:11;;;;;;;5.82;2.50;;;;;;;;;;10404410;28;20036;-86
2021/10/12 17:22:11;;;;;;;7.20;2.80;;;;;;;;;;10413767;28;20021;-86
2021/10/12 17:27:12;;;;;;;4.10;2.53;;;;;;;;;;10415619;28;20029;-87
2021/10/12 17:32:12;;;;;;;4.47;2.73;;;;;;;;;;10415866;28;20056;-87
2021/10/12 17:37:13;;;;;;;6.23;2.90;;;;;;;;;;10412041;28;20102;-86
2021/10/12 17:42:14;;;;;;;6.70;3.10;;;;;;;;;;10412154;28;20030;-85
2021/10/12 17:47:14;;;;;;;6.40;2.67;;;;;;;;;;10410292;28;20045;-89
2021/10/12 17:52:15;;;;;;;11.23;2.90;;;;;;;;;;10413059;28;20279;-89
2021/10/12 17:57:16;;;;;;;4.25;2.80;;;;;;;;;;10415527;28;20041;-88
2021/10/12 18:02:17;;;;;;;9.33;3.23;;;;;;;;;;10419430;28;20369;-89
2021/10/12 18:07:20;;;;;;;12.63;3.13;;;;;;;;;;10415654;28;20025;-89
2021/10/12 18:12:20;;;;;;;9.27;3.00;;;;;;;;;;10411598;28;20026;-88
2021/10/12 18:17:20;;;;;;;7.97;2.60;;;;;;;;;;10421845;28;20048;-89
2021/10/12 18:22:21;;;;;;;7.10;2.72;;;;;;;;;;10407141;28;20395;-87
2021/10/12 18:27:21;;;;;;;6.80;2.97;;;;;;;;;;10407614;28;20464;-88
2021/10/12 18:32:22;;;;;;;12.07;2.93;;;;;;;;;;10413912;28;20033;-88
2021/10/12 18:37:23;;;;;;;8.15;2.83;;;;;;;;;;10370221;28;20745;-88
2021/10/12 18:42:23;;;;;;;7.47;2.90;;;;;;;;;;10412350;28;20038;-87
2021/10/12 18:47:23;;;;;;;6.32;3.20;;;;;;;;;;10412495;28;20297;-89
2021/10/12 18:52:24;;;;;;;9.73;3.30;;;;;;;;;;10410930;28;20049;-87
2021/10/12 18:57:24;;;;;;;9.50;3.50;;;;;;;;;;10403612;28;20116;-87
2021/10/12 19:02:24;;;;;;;8.93;3.13;;;;;;;;;;10410765;28;20037;-87
2021/10/12 19:07:25;;;;;;;9.40;3.63;;;;;;;;;;10377935;28;20038;-88
2021/10/12 19:12:29;;;;;;;5.73;3.00;;;;;;;;;;10403325;28;20360;-86
2021/10/12 19:17:29;;;;;;;6.38;2.75;;;;;;;;;;10392371;28;20279;-86
2021/10/12 19:22:29;;;;;;;6.53;3.08;;;;;;;;;;10420186;28;20025;-87
2021/10/12 19:27:30;;;;;;;4.40;2.88;;;;;;;;;;10421300;28;20029;-87
2021/10/12 19:32:30;;;;;;;13.75;4.47;;;;;;;;;;10410382;28;20087;-88
2021/10/12 19:37:31;;;;;;;9.23;4.10;;;;;;;;;;10417598;28;20037;-88
2021/10/12 19:42:31;;;;;;;11.88;3.53;;;;;;;;;;10432728;23;20275;-88
2021/10/12 19:47:32;;;;;;;17.40;3.80;;;;;;;;;;10374726;28;20129;-89
2021/10/12 19:52:32;;;;;;;11.23;4.00;;;;;;;;;;10370645;28;20046;-88
2021/10/12 19:57:32;;;;;;;12.00;3.53;;;;;;;;;;10365969;28;20598;-88
2021/10/12 20:03:44;;;;;;;12.40;3.95;;;;;;;;;;10370607;28;20037;-88
2021/10/12 20:07:53;;;;;;;13.10;3.92;;;;;;;;;;10375696;28;20050;-88
2021/10/12 20:12:54;;;;;;;7.23;3.30;;;;;;;;;;10375881;28;20030;-88
2021/10/12 20:23:18;;;;;;;7.93;4.15;;;;;;;;;;10347106;28;20179;-88
2021/10/12 20:28:18;;;;;;;7.93;3.47;;;;;;;;;;10376065;28;20167;-89
2021/10/12 20:33:19;;;;;;;9.70;4.17;;;;;;;;;;10373212;28;20282;-89
2021/10/12 20:38:19;;;;;;;8.70;4.13;;;;;;;;;;10376760;28;20283;-90
2021/10/12 20:43:20;;;;;;;10.38;3.85;;;;;;;;;;10375839;28;20484;-88
2021/10/12 20:48:21;;;;;;;9.50;4.10;;;;;;;;;;10375778;28;20460;-87
2021/10/12 20:53:22;;;;;;;7.57;4.13;;;;;;;;;;10375487;28;20091;-88
2021/10/12 20:58:22;;;;;;;10.90;4.20;;;;;;;;;;10376374;28;20037;-88
2021/10/12 21:03:23;;;;;;;9.20;4.20;;;;;;;;;;10376023;28;20095;-89
2021/10/12 21:08:23;;;;;;;7.97;4.50;;;;;;;;;;10374468;28;20121;-87
2021/10/12 21:13:23;;;;;;;20.27;4.87;;;;;;;;;;10375069;28;20022;-92
2021/10/12 21:18:24;;;;;;;35.47;5.00;;;;;;;;;;10344335;28;20029;-89
2021/10/12 21:23:24;;;;;;;23.63;4.90;;;;;;;;;;10376238;28;20018;-85
2021/10/12 21:28:28;;;;;;;24.77;4.70;;;;;;;;;;10383096;28;20499;-85
2021/10/12 21:33:29;;;;;;;14.98;4.25;;;;;;;;;;10380322;28;20034;-88
2021/10/12 21:38:29;;;;;;;18.05;4.43;;;;;;;;;;10358423;28;20029;-88
2021/10/12 21:43:32;;;;;;;13.93;4.28;;;;;;;;;;10377137;28;20041;-91
2021/10/12 21:48:33;;;;;;;27.48;4.13;;;;;;;;;;10369080;28;20068;-93
2021/10/12 21:53:34;;;;;;;32.05;4.82;;;;;;;;;;10368390;28;20056;-91
2021/10/12 21:58:35;;;;;;;39.20;5.28;;;;;;;;;;10380525;28;20456;-93
2021/10/12 22:03:36;;;;;;;36.22;5.50;;;;;;;;;;10340970;28;20034;-93
2021/10/12 22:08:36;;;;;;;28.27;5.45;;;;;;;;;;10356243;28;20030;-94
2021/10/12 22:13:36;;;;;;;22.95;4.40;;;;;;;;;;10339976;28;20026;-95
2021/10/12 22:18:37;;;;;;;31.93;5.43;;;;;;;;;;10362901;28;20021;-96
2021/10/12 22:23:38;;;;;;;19.30;4.30;;;;;;;;;;10368993;28;20275;-96
2021/10/12 22:28:43;;;;;;;13.23;4.70;;;;;;;;;;10316269;28;20060;-93
2021/10/12 22:33:43;;;;;;;14.52;4.53;;;;;;;;;;10339626;28;20037;-93
2021/10/12 22:39:44;;;;;;;;;;;;;;;;;;;;;
2021/10/12 22:44:45;;;;;;;12.57;4.72;;;;;;;;;;10232674;28;20046;-91
2021/10/12 22:49:46;;;;;;;8.60;4.10;;;;;;;;;;10362951;28;20377;-91
2021/10/12 22:54:47;;;;;;;22.85;4.75;;;;;;;;;;10338636;28;20325;-90
2021/10/12 22:59:47;;;;;;;9.93;3.97;;;;;;;;;;10314726;28;20444;-90
2021/10/12 23:04:47;;;;;;;13.63;4.30;;;;;;;;;;10338910;28;20380;-92
2021/10/12 23:09:48;;;;;;;12.30;3.72;;;;;;;;;;10361356;28;20344;-91
2021/10/12 23:14:48;;;;;;;14.70;4.70;;;;;;;;;;10340925;28;20109;-86
2021/10/12 23:19:49;;;;;;;10.75;3.33;;;;;;;;;;10372755;28;20022;-86
2021/10/12 23:24:49;;;;;;;12.23;4.00;;;;;;;;;;10374530;28;20026;-87
2021/10/12 23:29:49;;;;;;;12.20;3.87;;;;;;;;;;10374925;28;20034;-86
2021/10/12 23:34:50;;;;;;;13.13;3.60;;;;;;;;;;10374211;28;20765;-86
2021/10/12 23:39:50;;;;;;;13.57;3.97;;;;;;;;;;10374005;28;20294;-87
2021/10/12 23:44:51;;;;;;;15.38;3.95;;;;;;;;;;10369108;28;20042;-92
2021/10/12 23:49:51;;;;;;;15.80;3.90;;;;;;;;;;10330265;28;20038;-89
2021/10/12 23:54:51;;;;;;;7.73;3.90;;;;;;;;;;10353421;28;20278;-89
2021/10/12 23:59:52;;;;;;;11.50;3.13;;;;;;;;;;10321368;28;20125;-90
